Time;durP1;ratioP1;P1;durP2;ratioP2;P2;SDS_P1;SDS_P2;PMS_P1;PMS_P2;Temp;Humidity;BMP_temperature;BMP_pressure;BME280_temperature;BME280_humidity;BME280_pressure;Samples;Min_cycle;Max_cycle;Signal;HPM_P1;HPM_P2
2023/04/18 00:00:09;;;;;;;16.60;10.10;;;;;;;9.77;57.00;102984.91;7392797;19;20609;-56
2023/04/18 00:02:37;;;;;;;15.48;9.73;;;;;;;9.75;57.08;102981.44;7394716;19;20018;-55
2023/04/18 00:05:06;;;;;;;17.52;10.57;;;;;;;9.66;57.29;102986.22;7392349;19;20028;-56
2023/04/18 00:07:34;;;;;;;16.23;10.80;;;;;;;9.60;57.57;102979.31;7394233;19;20011;-56
2023/04/18 00:10:02;;;;;;;16.08;10.93;;;;;;;9.71;57.42;102981.63;7392511;19;20014;-55
2023/04/18 00:12:30;;;;;;;16.73;11.23;;;;;;;9.86;57.26;102980.22;7392214;19;20364;-56
2023/04/18 00:14:57;;;;;;;19.63;10.50;;;;;;;9.79;57.92;102971.63;7391070;19;20034;-56
2023/04/18 00:17:27;;;;;;;16.15;10.60;;;;;;;9.74;57.91;102982.38;7391974;19;20040;-56
2023/04/18 00:19:55;;;;;;;18.90;11.48;;;;;;;9.69;58.27;102973.75;7390228;19;20014;-55
2023/04/18 00:22:22;;;;;;;16.33;10.68;;;;;;;9.71;58.39;102978.97;7390216;19;20014;-54
2023/04/18 00:24:49;;;;;;;17.15;11.50;;;;;;;9.75;58.25;102985.88;7391705;19;20015;-55
2023/04/18 00:27:20;;;;;;;20.23;11.07;;;;;;;9.76;58.36;102979.66;7394215;19;20368;-56
2023/04/18 00:29:47;;;;;;;18.00;10.25;;;;;;;9.71;58.38;102978.97;7393125;19;20341;-55
2023/04/18 00:32:15;;;;;;;16.25;10.63;;;;;;;9.75;58.47;102984.09;7393543;19;20019;-56
2023/04/18 00:34:42;;;;;;;16.52;11.05;;;;;;;9.71;58.54;102990.41;7392920;19;20029;-54
2023/04/18 00:37:09;;;;;;;15.65;10.43;;;;;;;9.65;58.58;102981.81;7393278;19;20015;-55
2023/04/18 00:39:36;;;;;;;16.23;9.65;;;;;;;9.68;58.53;102976.41;7392522;19;20021;-56
2023/04/18 00:42:03;;;;;;;16.23;9.95;;;;;;;9.70;58.49;102986.03;7393350;19;20018;-56
2023/04/18 00:44:31;;;;;;;14.25;8.88;;;;;;;9.72;58.41;102980.69;7391352;19;20021;-55
2023/04/18 00:46:58;;;;;;;15.93;9.20;;;;;;;9.69;58.36;102980.78;7390732;19;20014;-55
2023/04/18 00:49:25;;;;;;;13.68;8.82;;;;;;;9.68;58.49;102973.78;7392241;19;20007;-56
2023/04/18 00:51:54;;;;;;;15.25;8.82;;;;;;;9.69;58.58;102980.78;7393024;19;20018;-55
2023/04/18 00:54:23;;;;;;;15.45;8.70;;;;;;;9.66;58.43;102979.13;7392409;19;20018;-57
2023/04/18 00:56:50;;;;;;;13.93;8.32;;;;;;;9.60;58.59;102981.13;7389321;19;20023;-55
2023/04/18 00:59:17;;;;;;;14.82;8.07;;;;;;;9.58;58.43;102977.63;7390678;19;20014;-55
2023/04/18 01:01:44;;;;;;;15.25;7.93;;;;;;;9.61;58.30;102980.19;7391717;19;20014;-55
2023/04/18 01:04:11;;;;;;;14.18;8.20;;;;;;;9.63;58.31;102978.38;7392561;19;20018;-55
2023/04/18 01:06:39;;;;;;;12.93;7.75;;;;;;;9.63;58.30;102981.88;7390204;19;20082;-56
2023/04/18 01:09:06;;;;;;;14.80;8.05;;;;;;;9.64;58.38;102982.72;7391505;19;20018;-56
2023/04/18 01:11:34;;;;;;;14.98;8.07;;;;;;;9.56;58.90;102976.84;7393463;19;20026;-57
2023/04/18 01:14:06;;;;;;;15.63;9.20;;;;;;;9.55;59.29;102983.06;7393269;19;20023;-56
2023/04/18 01:16:33;;;;;;;15.35;10.35;;;;;;;9.53;59.31;102978.66;7391518;19;20023;-56
2023/04/18 01:19:01;;;;;;;15.48;10.18;;;;;;;9.55;59.49;102977.75;7390991;19;20014;-56
2023/04/18 01:21:32;;;;;;;16.20;11.20;;;;;;;9.57;59.73;102986.50;7393460;19;20022;-58
2023/04/18 01:24:07;;;;;;;17.80;11.55;;;;;;;9.61;59.98;102985.47;7392855;19;20019;-57
2023/04/18 01:26:34;;;;;;;18.27;11.10;;;;;;;9.59;60.21;102974.09;7391394;19;20023;-57
2023/04/18 01:29:00;;;;;;;17.73;12.43;;;;;;;9.57;60.54;102981.22;7392473;19;20010;-57
2023/04/18 01:31:27;;;;;;;19.15;12.60;;;;;;;9.52;61.09;102979.59;7392593;19;20028;-56
2023/04/18 01:33:54;;;;;;;19.60;12.82;;;;;;;9.50;61.25;102978.78;7393641;19;20470;-56
2023/04/18 01:36:21;;;;;;;18.33;12.60;;;;;;;9.50;61.25;102975.25;7391231;19;20018;-57
2023/04/18 01:38:48;;;;;;;20.55;13.40;;;;;;;9.58;61.30;102980.28;7392060;19;20014;-57
2023/04/18 01:41:15;;;;;;;18.95;12.90;;;;;;;9.52;61.61;102974.28;7392473;19;20386;-57
2023/04/18 01:43:42;;;;;;;21.48;12.93;;;;;;;9.51;61.81;102982.28;7391331;19;20351;-57
2023/04/18 01:46:09;;;;;;;21.42;13.43;;;;;;;9.42;62.22;102977.28;7389745;19;20014;-57
2023/04/18 01:48:36;;;;;;;19.77;13.10;;;;;;;9.39;62.24;102980.06;7392076;19;20018;-57
2023/04/18 01:51:03;;;;;;;19.83;13.40;;;;;;;9.47;62.21;102975.38;7391854;19;20019;-56
2023/04/18 01:53:30;;;;;;;21.23;14.25;;;;;;;9.43;62.12;102977.25;7392487;19;20024;-56
2023/04/18 01:55:57;;;;;;;21.27;13.60;;;;;;;9.41;62.30;102971.13;7390574;19;20029;-56
2023/04/18 01:58:25;;;;;;;21.30;13.55;;;;;;;9.36;62.63;102977.50;7391749;19;20014;-57
2023/04/18 02:00:53;;;;;;;21.55;13.70;;;;;;;9.35;62.85;102975.75;7392170;19;20022;-57
2023/04/18 02:03:20;;;;;;;20.95;13.60;;;;;;;9.48;62.31;102975.31;7392032;19;20018;-56
2023/04/18 02:05:47;;;;;;;21.38;13.45;;;;;;;9.45;62.33;102971.91;7390184;19;20019;-56
2023/04/18 02:08:14;;;;;;;18.27;12.25;;;;;;;9.39;62.53;102980.91;7391721;19;20014;-57
2023/04/18 02:10:41;;;;;;;20.08;12.55;;;;;;;9.46;62.70;102977.16;7390930;19;20018;-57
2023/04/18 02:13:08;;;;;;;20.23;13.20;;;;;;;9.50;62.57;102981.44;7391400;19;20031;-56
2023/04/18 02:15:35;;;;;;;20.25;12.82;;;;;;;9.57;62.39;102976.78;7390342;19;20116;-57
2023/04/18 02:18:02;;;;;;;18.92;12.95;;;;;;;9.47;62.76;102976.25;7390033;19;20019;-56
2023/04/18 02:20:30;;;;;;;20.23;13.18;;;;;;;9.49;62.64;102981.47;7390687;19;20078;-54
2023/04/18 02:22:57;;;;;;;23.08;13.05;;;;;;;9.52;62.62;102978.72;7390199;19;20022;-55
2023/04/18 02:25:26;;;;;;;21.25;13.23;;;;;;;9.51;62.68;102983.16;7389264;19;20022;-54
2023/04/18 02:27:54;;;;;;;21.20;13.13;;;;;;;9.44;62.93;102978.97;7390973;19;20018;-57
2023/04/18 02:30:22;;;;;;;19.92;13.43;;;;;;;9.36;63.02;102975.72;7390220;19;20018;-56
2023/04/18 02:32:53;;;;;;;20.98;12.90;;;;;;;9.41;63.18;102979.06;7391196;19;20357;-57
2023/04/18 02:35:20;;;;;;;22.02;14.05;;;;;;;9.51;62.70;102977.88;7389739;19;20092;-57
2023/04/18 02:37:47;;;;;;;19.83;12.93;;;;;;;9.51;62.81;102980.50;7391404;19;20097;-56
2023/04/18 02:40:14;;;;;;;19.75;13.32;;;;;;;9.48;62.82;102985.03;7390028;19;20018;-57
2023/04/18 02:42:41;;;;;;;19.23;13.23;;;;;;;9.44;63.20;102983.41;7390391;19;20014;-57
2023/04/18 02:45:08;;;;;;;19.55;13.23;;;;;;;9.40;63.08;102987.94;7389151;19;20029;-56
2023/04/18 02:47:35;;;;;;;19.45;13.45;;;;;;;9.41;63.17;102987.00;7390810;19;20018;-57
2023/04/18 02:50:19;;;;;;;;;;;;;;;9.36;63.62;102982.81;7390815;19;20043;-57
2023/04/18 02:52:46;;;;;;;21.65;14.02;;;;;;;9.29;63.73;102979.47;7388791;19;20205;-56
2023/04/18 02:55:13;;;;;;;19.65;13.88;;;;;;;9.28;63.72;102991.84;7389320;19;20018;-57
2023/04/18 02:57:40;;;;;;;21.27;14.70;;;;;;;9.31;63.67;102984.72;7390271;19;20011;-56
2023/04/18 03:00:08;;;;;;;22.00;14.27;;;;;;;9.26;63.83;102980.44;7389656;19;20038;-57
2023/04/18 03:02:35;;;;;;;22.90;15.07;;;;;;;9.31;63.91;102977.66;7389846;19;20011;-56
2023/04/18 03:05:02;;;;;;;22.60;14.82;;;;;;;9.30;63.71;102986.50;7389038;19;20039;-56
2023/04/18 03:07:29;;;;;;;22.02;14.75;;;;;;;9.23;64.19;102987.59;7388528;19;20014;-56
2023/04/18 03:09:56;;;;;;;21.25;15.45;;;;;;;9.20;64.17;102991.22;7389993;19;20030;-56
2023/04/18 03:12:23;;;;;;;23.65;14.85;;;;;;;9.16;64.17;102994.88;7389825;19;20022;-56
2023/04/18 03:14:50;;;;;;;22.95;15.18;;;;;;;9.16;64.54;102992.25;7390041;19;20345;-57
2023/04/18 03:17:17;;;;;;;24.42;15.82;;;;;;;9.17;64.41;102991.31;7389952;19;20014;-57
2023/04/18 03:19:45;;;;;;;25.52;16.20;;;;;;;9.23;64.63;102992.88;7390447;19;20078;-56
2023/04/18 03:22:13;;;;;;;24.58;16.25;;;;;;;9.20;64.65;102995.66;7389613;19;20018;-57
2023/04/18 03:24:40;;;;;;;23.48;15.88;;;;;;;9.16;64.94;102997.53;7387140;19;20018;-57
2023/04/18 03:27:07;;;;;;;23.92;15.63;;;;;;;9.10;65.07;103003.00;7389778;19;20019;-57
2023/04/18 03:29:34;;;;;;;25.70;16.92;;;;;;;9.15;64.79;103002.84;7389775;19;20018;-58
2023/04/18 03:32:00;;;;;;;26.00;16.42;;;;;;;9.18;64.64;102995.69;7389565;19;20014;-58
2023/04/18 03:34:28;;;;;;;26.10;17.73;;;;;;;9.17;64.80;103006.31;7392917;19;20017;-58
2023/04/18 03:36:55;;;;;;;25.20;18.40;;;;;;;9.15;64.97;103005.50;7394110;19;20023;-57
2023/04/18 03:39:22;;;;;;;25.63;17.80;;;;;;;9.14;64.87;103004.63;7396946;19;20027;-57
2023/04/18 03:41:49;;;;;;;26.88;17.90;;;;;;;9.17;64.87;103001.03;7395937;19;20025;-57
2023/04/18 03:44:15;;;;;;;28.27;19.05;;;;;;;9.20;65.15;103004.44;7396233;19;20015;-57
2023/04/18 03:46:43;;;;;;;26.33;18.95;;;;;;;9.15;64.88;103013.41;7393964;19;20026;-57
2023/04/18 03:49:10;;;;;;;28.33;19.55;;;;;;;9.19;64.94;103007.13;7396397;19;20035;-57
2023/04/18 03:51:48;;;;;;;29.00;19.40;;;;;;;9.23;64.98;103007.00;7396372;19;20039;-57
2023/04/18 03:54:15;;;;;;;28.98;20.42;;;;;;;9.17;64.88;103014.25;7396671;19;20035;-56
2023/04/18 03:56:43;;;;;;;28.92;20.55;;;;;;;9.16;64.79;103015.16;7393460;19;20055;-57
2023/04/18 03:59:10;;;;;;;28.55;20.08;;;;;;;9.12;65.16;103010.84;7396146;19;20022;-56
2023/04/18 04:01:37;;;;;;;29.85;21.02;;;;;;;9.13;64.86;103013.47;7395528;19;20105;-57
2023/04/18 04:04:04;;;;;;;29.92;20.58;;;;;;;9.10;65.18;103012.72;7396301;19;20039;-57
2023/04/18 04:06:31;;;;;;;29.55;20.60;;;;;;;9.11;64.99;103011.78;7392024;19;20388;-57
2023/04/18 04:08:58;;;;;;;33.22;21.88;;;;;;;9.05;65.20;103025.22;7395989;19;20045;-57
2023/04/18 04:11:26;;;;;;;32.60;21.05;;;;;;;9.00;65.17;103017.41;7395491;19;20015;-57
2023/04/18 04:13:53;;;;;;;27.40;21.10;;;;;;;8.94;65.30;103022.88;7395389;19;20033;-57
2023/04/18 04:16:20;;;;;;;32.35;21.58;;;;;;;8.98;65.10;103013.94;7393358;19;20019;-56
2023/04/18 04:18:47;;;;;;;32.58;22.60;;;;;;;8.96;65.15;103021.03;7395053;19;20040;-57
2023/04/18 04:21:14;;;;;;;31.77;21.48;;;;;;;9.00;65.12;103015.66;7395708;19;20010;-56
2023/04/18 04:23:42;;;;;;;33.47;21.40;;;;;;;8.94;65.17;103014.97;7394752;19;20021;-56
2023/04/18 04:26:09;;;;;;;33.70;22.25;;;;;;;8.95;65.31;103020.19;7393348;19;20041;-56
2023/04/18 04:28:37;;;;;;;29.23;21.30;;;;;;;8.96;65.25;103018.41;7392728;19;20015;-56
2023/04/18 04:31:05;;;;;;;29.65;20.98;;;;;;;9.02;64.89;103016.44;7395266;19;20011;-56
2023/04/18 04:33:32;;;;;;;31.08;21.73;;;;;;;8.98;64.70;103021.88;7392770;19;20015;-56
2023/04/18 04:36:00;;;;;;;30.98;21.33;;;;;;;8.98;64.90;103027.16;7393359;19;20018;-56
2023/04/18 04:38:29;;;;;;;30.45;20.25;;;;;;;9.00;64.30;103023.56;7394607;19;20017;-63
2023/04/18 04:40:57;;;;;;;30.20;21.33;;;;;;;9.02;64.55;103032.31;7395446;19;20030;-64
2023/04/18 04:43:24;;;;;;;30.73;21.15;;;;;;;9.03;64.14;103035.81;7394389;19;20019;-64
2023/04/18 04:45:52;;;;;;;32.65;21.25;;;;;;;8.98;64.40;103041.25;7392615;19;20019;-65
2023/04/18 04:48:20;;;;;;;29.27;20.25;;;;;;;9.07;63.92;103037.44;7392985;19;20025;-64
2023/04/18 04:50:53;;;;;;;30.20;20.85;;;;;;;9.09;63.62;103040.06;7393353;19;20019;-65
2023/04/18 04:53:23;;;;;;;27.65;19.63;;;;;;;9.05;63.54;103047.22;7394295;19;20039;-64
2023/04/18 04:55:56;;;;;;;29.10;19.42;;;;;;;9.08;63.53;103044.47;7393052;19;20019;-65
2023/04/18 04:58:23;;;;;;;30.98;21.15;;;;;;;9.02;63.37;103049.94;7392104;19;20019;-64
2023/04/18 05:00:56;;;;;;;30.07;20.30;;;;;;;9.14;62.87;103049.56;7394602;19;20019;-64
2023/04/18 05:03:23;;;;;;;27.88;19.45;;;;;;;9.23;62.80;103043.13;7392929;19;20292;-64
2023/04/18 05:05:50;;;;;;;29.80;20.48;;;;;;;9.25;62.82;103043.94;7392773;19;20019;-64
2023/04/18 05:08:17;;;;;;;32.70;20.83;;;;;;;9.12;62.80;103054.03;7391859;19;20028;-65
2023/04/18 05:10:44;;;;;;;26.40;19.10;;;;;;;9.07;63.22;103061.22;7392091;19;20018;-65
2023/04/18 05:13:11;;;;;;;29.10;19.92;;;;;;;9.09;63.25;103056.78;7393472;19;20025;-66
2023/04/18 05:15:38;;;;;;;28.70;20.35;;;;;;;9.15;62.88;103048.63;7392107;19;20022;-65
2023/04/18 05:18:06;;;;;;;29.23;20.33;;;;;;;9.12;63.01;103046.13;7390460;19;20070;-65
2023/04/18 05:20:33;;;;;;;28.05;19.50;;;;;;;9.11;63.24;103041.72;7391635;19;20479;-62
2023/04/18 05:23:00;;;;;;;27.38;19.08;;;;;;;9.12;63.32;103048.75;7392153;19;20502;-67
2023/04/18 05:25:28;;;;;;;28.98;20.23;;;;;;;9.08;63.22;103047.13;7390549;19;20019;-62
2023/04/18 05:27:56;;;;;;;28.98;20.42;;;;;;;8.98;63.66;103054.44;7391879;19;20286;-62
2023/04/18 05:30:23;;;;;;;28.35;19.63;;;;;;;9.00;63.63;103049.09;7391358;19;20021;-62
2023/04/18 05:32:50;;;;;;;28.80;20.48;;;;;;;9.01;63.84;103050.84;7393275;19;20019;-65
2023/04/18 05:35:17;;;;;;;26.00;19.10;;;;;;;9.01;63.64;103066.72;7393180;19;20018;-65
2023/04/18 05:37:44;;;;;;;28.75;19.55;;;;;;;9.11;63.28;103064.66;7392584;19;20015;-64
2023/04/18 05:40:12;;;;;;;31.50;20.23;;;;;;;9.17;63.40;103061.84;7390930;19;20025;-64
2023/04/18 05:42:39;;;;;;;29.65;20.65;;;;;;;9.14;63.29;103064.56;7393384;19;20022;-65
2023/04/18 05:45:07;;;;;;;27.25;20.05;;;;;;;9.08;63.81;103067.38;7390444;19;20019;-65
2023/04/18 05:47:34;;;;;;;28.48;19.52;;;;;;;9.10;63.53;103071.72;7391527;19;20035;-65
2023/04/18 05:50:01;;;;;;;28.80;20.30;;;;;;;9.05;63.97;103076.28;7392109;19;20022;-65
2023/04/18 05:52:28;;;;;;;30.13;19.73;;;;;;;9.08;63.67;103077.94;7392297;19;20089;-65
2023/04/18 05:54:55;;;;;;;28.67;19.92;;;;;;;9.12;63.67;103075.19;7390077;19;20035;-61
2023/04/18 05:57:22;;;;;;;29.35;20.23;;;;;;;9.11;63.80;103077.88;7389738;19;20022;-62
2023/04/18 05:59:49;;;;;;;29.85;19.58;;;;;;;9.19;63.50;103078.50;7390187;19;20018;-61
2023/04/18 06:02:17;;;;;;;28.55;19.33;;;;;;;9.22;63.54;103079.25;7392239;19;20024;-64
2023/04/18 06:04:44;;;;;;;30.95;20.25;;;;;;;9.28;63.13;103076.44;7394156;19;20025;-63
2023/04/18 06:07:11;;;;;;;28.88;19.33;;;;;;;9.35;63.15;103073.59;7391687;19;20047;-65
2023/04/18 06:09:39;;;;;;;28.40;19.27;;;;;;;9.28;63.50;103075.59;7392315;19;20018;-63
2023/04/18 06:12:06;;;;;;;29.08;19.50;;;;;;;9.24;63.61;103082.75;7394030;19;20036;-61
2023/04/18 06:14:33;;;;;;;29.85;19.02;;;;;;;9.28;63.71;103076.44;7393068;19;20709;-63
2023/04/18 06:17:00;;;;;;;29.25;18.20;;;;;;;9.30;63.36;103072.88;7393576;19;20018;-64
2023/04/18 06:19:27;;;;;;;27.95;18.63;;;;;;;9.30;63.01;103072.88;7393742;19;20074;-61
2023/04/18 06:21:54;;;;;;;26.23;17.75;;;;;;;9.25;63.16;103075.69;7393703;19;20007;-64
2023/04/18 06:24:22;;;;;;;26.27;18.13;;;;;;;9.26;62.96;103074.75;7393275;19;20015;-65
2023/04/18 06:26:49;;;;;;;24.58;17.08;;;;;;;9.34;62.50;103078.03;7391373;19;20014;-61
2023/04/18 06:29:17;;;;;;;26.98;16.58;;;;;;;9.35;62.42;103081.53;7393506;19;20022;-61
2023/04/18 06:31:45;;;;;;;27.38;16.77;;;;;;;9.38;62.21;103081.44;7393419;19;20029;-60
2023/04/18 06:34:12;;;;;;;23.88;16.27;;;;;;;9.38;61.67;103084.09;7393338;19;20022;-62
2023/04/18 06:36:40;;;;;;;24.00;16.60;;;;;;;9.39;61.93;103089.34;7392659;19;20043;-61
2023/04/18 06:39:07;;;;;;;24.70;16.75;;;;;;;9.40;61.67;103088.41;7393315;19;20408;-62
2023/04/18 06:41:37;;;;;;;22.88;15.93;;;;;;;9.50;61.51;103087.22;7393975;19;20073;-62
2023/04/18 06:44:04;;;;;;;24.73;16.15;;;;;;;9.59;61.08;103091.34;7391646;19;20018;-61
2023/04/18 06:46:32;;;;;;;23.77;15.70;;;;;;;9.48;61.38;103091.69;7390952;19;20019;-60
2023/04/18 06:48:59;;;;;;;26.23;16.20;;;;;;;9.53;61.44;103095.03;7393269;19;20040;-62
2023/04/18 06:51:26;;;;;;;24.63;16.80;;;;;;;9.52;61.74;103084.53;7392725;19;20025;-63
2023/04/18 06:53:53;;;;;;;22.85;15.40;;;;;;;9.59;61.37;103091.34;7393081;19;20022;-63
2023/04/18 06:56:23;;;;;;;23.60;15.63;;;;;;;9.69;61.05;103095.44;7391017;19;20014;-60
2023/04/18 06:58:51;;;;;;;23.10;15.80;;;;;;;9.64;60.92;103089.41;7391534;19;20082;-63
2023/04/18 07:01:18;;;;;;;23.00;15.68;;;;;;;9.58;61.13;103094.91;7390360;19;20047;-59
2023/04/18 07:03:46;;;;;;;23.20;15.18;;;;;;;9.67;60.84;103101.69;7390648;19;20034;-61
2023/04/18 07:06:13;;;;;;;24.20;15.27;;;;;;;9.78;60.29;103099.56;7387810;19;20015;-60
2023/04/18 07:08:41;;;;;;;22.42;14.70;;;;;;;9.72;60.55;103100.59;7392787;19;20026;-60
2023/04/18 07:11:08;;;;;;;23.13;15.40;;;;;;;9.82;60.97;103100.34;7395895;19;20014;-61
2023/04/18 07:13:35;;;;;;;21.55;14.70;;;;;;;9.91;60.70;103100.88;7396860;19;20491;-60
2023/04/18 07:16:02;;;;;;;21.83;13.70;;;;;;;9.93;59.92;103107.00;7397144;19;20498;-59
2023/04/18 07:18:29;;;;;;;21.23;13.60;;;;;;;9.84;59.88;103101.13;7393059;19;20134;-60
2023/04/18 07:21:07;;;;;;;19.02;13.07;;;;;;;9.84;59.84;103099.34;7395706;19;20031;-61
2023/04/18 07:23:34;;;;;;;21.63;14.35;;;;;;;9.91;59.98;103103.53;7397771;19;20018;-62
2023/04/18 07:26:04;;;;;;;21.13;14.18;;;;;;;10.04;59.57;103104.00;7395967;19;20022;-63
2023/04/18 07:28:31;;;;;;;22.17;14.45;;;;;;;10.00;59.58;103103.25;7393066;19;20026;-64
2023/04/18 07:31:01;;;;;;;21.27;13.32;;;;;;;10.11;59.55;103102.00;7396953;19;20023;-64
2023/04/18 07:33:32;;;;;;;20.10;13.43;;;;;;;10.14;59.09;103099.25;7397336;19;20010;-64
2023/04/18 07:36:01;;;;;;;18.33;12.20;;;;;;;10.10;58.78;103100.25;7396593;19;20031;-63
2023/04/18 07:38:28;;;;;;;19.58;13.38;;;;;;;10.17;58.82;103102.66;7393154;19;20481;-62
2023/04/18 07:40:57;;;;;;;19.90;12.73;;;;;;;10.31;58.28;103102.22;7396549;19;20014;-62
2023/04/18 07:43:25;;;;;;;20.85;12.52;;;;;;;10.39;57.94;103105.47;7395308;19;20018;-62
2023/04/18 07:45:53;;;;;;;17.50;11.27;;;;;;;10.34;57.80;103110.06;7396398;19;20357;-62
2023/04/18 07:48:26;;;;;;;18.35;12.07;;;;;;;10.32;57.76;103103.09;7394286;19;20375;-62
2023/04/18 07:50:53;;;;;;;16.83;11.25;;;;;;;10.43;57.63;103109.72;7395155;19;20013;-62
2023/04/18 07:53:20;;;;;;;17.85;11.55;;;;;;;10.48;57.44;103105.13;7396772;19;20010;-62
2023/04/18 07:55:48;;;;;;;16.73;10.40;;;;;;;10.57;57.24;103103.97;7394250;19;20487;-62
2023/04/18 07:58:16;;;;;;;17.83;9.60;;;;;;;10.64;56.64;103112.53;7395066;19;20035;-62
2023/04/18 08:00:43;;;;;;;16.45;9.73;;;;;;;10.67;56.18;103112.41;7395723;19;20015;-63
2023/04/18 08:03:11;;;;;;;14.27;9.20;;;;;;;10.69;55.74;103111.47;7396586;19;20019;-62
2023/04/18 08:05:41;;;;;;;15.20;9.07;;;;;;;10.67;55.13;103115.06;7393918;19;20025;-62
2023/04/18 08:08:10;;;;;;;15.77;9.65;;;;;;;10.75;55.00;103105.06;7391420;19;20018;-62
2023/04/18 08:10:38;;;;;;;16.35;9.65;;;;;;;10.78;55.03;103104.94;7395765;19;20018;-63
2023/04/18 08:13:06;;;;;;;16.38;9.65;;;;;;;10.86;55.05;103108.19;7395956;19;20098;-63
2023/04/18 08:15:35;;;;;;;14.68;8.63;;;;;;;10.85;54.41;103105.59;7393525;19;20019;-61
2023/04/18 08:18:02;;;;;;;16.33;9.65;;;;;;;10.86;54.44;103105.53;7393743;19;20017;-62
2023/04/18 08:20:29;;;;;;;15.75;9.73;;;;;;;10.98;54.39;103107.72;7392814;19;20022;-62
2023/04/18 08:23:00;;;;;;;16.65;8.65;;;;;;;11.06;53.84;103112.72;7395937;19;20047;-62
2023/04/18 08:25:38;;;;;;;17.40;9.55;;;;;;;11.08;53.46;103104.72;7393298;19;20034;-61
2023/04/18 08:28:05;;;;;;;16.23;9.55;;;;;;;11.10;52.86;103108.19;7393079;19;20022;-62
2023/04/18 08:30:33;;;;;;;15.88;9.75;;;;;;;11.11;52.44;103117.88;7393299;19;20022;-61
2023/04/18 08:33:00;;;;;;;15.57;8.68;;;;;;;11.18;52.62;103120.25;7395466;19;20475;-61
2023/04/18 08:35:27;;;;;;;14.55;7.63;;;;;;;11.21;51.80;103116.59;7393242;19;20043;-62
2023/04/18 08:37:54;;;;;;;12.68;6.57;;;;;;;11.25;50.97;103112.03;7391393;19;20018;-61
2023/04/18 08:40:21;;;;;;;11.25;6.53;;;;;;;11.19;50.62;103108.69;7394460;19;20022;-61
2023/04/18 08:42:48;;;;;;;10.43;6.07;;;;;;;11.22;50.57;103105.94;7395349;19;20022;-61
2023/04/18 08:45:17;;;;;;;12.70;6.50;;;;;;;11.31;50.75;103107.38;7394358;19;20460;-64
2023/04/18 08:47:44;;;;;;;13.20;6.70;;;;;;;11.34;50.73;103106.38;7391278;19;20032;-62
2023/04/18 08:50:11;;;;;;;14.38;6.50;;;;;;;11.53;50.70;103114.50;7392447;19;20523;-62
2023/04/18 08:52:43;;;;;;;11.82;5.30;;;;;;;11.59;50.17;103114.22;7394682;19;20018;-62
2023/04/18 08:55:10;;;;;;;12.07;5.15;;;;;;;11.55;49.48;103107.31;7394269;19;20097;-62
2023/04/18 08:57:38;;;;;;;10.02;4.63;;;;;;;11.55;50.12;103107.31;7393086;19;20018;-62
2023/04/18 09:00:10;;;;;;;10.27;4.40;;;;;;;11.63;49.67;103111.38;7394210;19;20026;-61
2023/04/18 09:02:42;;;;;;;12.10;4.55;;;;;;;11.69;49.44;103100.53;7393900;19;20499;-61
2023/04/18 09:05:18;;;;;;;7.57;4.00;;;;;;;11.74;49.80;103102.13;7394174;19;20035;-61
2023/04/18 09:07:51;;;;;;;9.77;4.20;;;;;;;11.75;49.01;103095.88;7391122;19;20019;-61
2023/04/18 09:10:28;;;;;;;9.52;4.50;;;;;;;11.88;49.30;103105.13;7392330;19;20532;-61
2023/04/18 09:12:57;;;;;;;8.80;4.07;;;;;;;11.87;49.25;103096.28;7393995;19;20532;-61
2023/04/18 09:15:26;;;;;;;8.57;3.92;;;;;;;12.05;49.22;103097.28;7392224;19;20029;-61
2023/04/18 09:18:01;;;;;;;8.95;3.95;;;;;;;12.10;49.25;103095.34;7390980;19;20018;-61
2023/04/18 09:20:37;;;;;;;8.10;4.15;;;;;;;12.19;48.95;103100.25;7393762;19;20025;-61
2023/04/18 09:23:09;;;;;;;7.85;3.85;;;;;;;12.08;48.54;103101.63;7394173;19;20093;-60
2023/04/18 09:25:40;;;;;;;8.80;4.40;;;;;;;12.06;49.04;103101.72;7393673;19;20018;-61
2023/04/18 09:28:28;;;;;;;11.38;4.50;;;;;;;12.10;49.17;103103.31;7391579;19;20022;-60
2023/04/18 09:30:56;;;;;;;6.88;3.20;;;;;;;12.10;48.69;103097.13;7393054;19;20052;-60
2023/04/18 09:33:31;;;;;;;6.00;3.20;;;;;;;12.14;48.88;103093.41;7393119;19;20516;-60
2023/04/18 09:36:18;;;;;;;5.72;2.85;;;;;;;12.15;48.05;103093.34;7391692;19;20018;-60
2023/04/18 09:38:46;;;;;;;7.35;3.38;;;;;;;12.07;48.55;103090.16;7390416;19;20040;-60
2023/04/18 09:41:16;;;;;;;6.38;3.10;;;;;;;12.19;48.94;103089.59;7393260;19;20018;-60
2023/04/18 09:43:47;;;;;;;4.70;2.90;;;;;;;12.33;48.92;103091.69;7392763;19;20027;-61
2023/04/18 09:46:16;;;;;;;7.70;2.92;;;;;;;12.36;48.70;103088.91;7392730;19;20045;-60
2023/04/18 09:48:43;;;;;;;6.00;3.10;;;;;;;12.38;48.62;103096.78;7390468;19;20021;-60
2023/04/18 09:51:14;;;;;;;4.93;2.92;;;;;;;12.29;48.20;103092.75;7393056;19;20320;-60
2023/04/18 09:53:46;;;;;;;5.45;2.85;;;;;;;12.25;48.26;103088.50;7390728;19;20347;-60
2023/04/18 09:56:23;;;;;;;4.68;2.30;;;;;;;12.32;47.58;103091.72;7390847;19;20024;-61
2023/04/18 09:58:55;;;;;;;5.47;2.30;;;;;;;12.29;47.67;103097.22;7390646;19;20026;-60
2023/04/18 10:01:27;;;;;;;4.40;2.30;;;;;;;12.28;47.94;103082.16;7392275;19;20010;-60
2023/04/18 10:03:55;;;;;;;3.50;2.33;;;;;;;12.40;47.84;103092.25;7392537;19;20026;-60
2023/04/18 10:06:26;;;;;;;4.10;2.00;;;;;;;12.55;47.77;103098.69;7391880;19;20026;-60
2023/04/18 10:08:54;;;;;;;4.43;2.25;;;;;;;12.54;47.02;103086.34;7391915;19;20021;-60
2023/04/18 10:11:22;;;;;;;4.20;2.30;;;;;;;12.59;46.91;103089.66;7392235;19;20021;-60
2023/04/18 10:13:54;;;;;;;5.65;2.40;;;;;;;12.82;46.43;103076.22;7391319;19;20018;-63
2023/04/18 10:16:22;;;;;;;5.20;2.47;;;;;;;12.95;46.01;103080.97;7391631;19;20022;-63
2023/04/18 10:18:50;;;;;;;6.45;2.28;;;;;;;12.83;46.92;103082.38;7389988;19;20086;-61
2023/04/18 10:21:16;;;;;;;4.25;2.22;;;;;;;12.90;46.31;103090.00;7391909;19;20018;-61
2023/04/18 10:23:47;;;;;;;6.55;2.70;;;;;;;12.93;46.15;103079.25;7391528;19;20018;-59
2023/04/18 10:26:15;;;;;;;7.07;2.80;;;;;;;13.03;46.80;103097.41;7391256;19;20043;-60
2023/04/18 10:28:53;;;;;;;8.75;3.80;;;;;;;13.13;45.66;103077.44;7389535;19;20019;-61
2023/04/18 10:31:26;;;;;;;7.38;3.55;;;;;;;13.28;46.08;103095.38;7389866;19;20015;-61
2023/04/18 10:33:56;;;;;;;7.53;3.65;;;;;;;13.38;45.75;103082.47;7390690;19;20022;-62
2023/04/18 10:36:27;;;;;;;7.05;3.67;;;;;;;13.41;45.79;103074.34;7391365;19;20089;-61
2023/04/18 10:39:21;;;;;;;9.48;4.68;;;;;;;13.39;45.30;103078.88;7391033;19;20021;-62
2023/04/18 10:41:49;;;;;;;9.73;4.80;;;;;;;13.36;46.07;103084.38;7388738;19;20010;-61
2023/04/18 10:44:18;;;;;;;8.93;5.15;;;;;;;13.47;46.05;103083.81;7390143;19;20081;-62
2023/04/18 10:46:51;;;;;;;8.88;4.45;;;;;;;13.55;45.78;103087.00;7390149;19;20512;-62
2023/04/18 10:49:23;;;;;;;9.20;4.67;;;;;;;13.63;46.16;103084.81;7386301;19;20014;-63
2023/04/18 10:51:58;;;;;;;9.40;4.80;;;;;;;13.66;46.19;103079.34;7390953;19;20499;-62
2023/04/18 10:54:41;;;;;;;9.98;4.65;;;;;;;13.65;45.45;103077.59;7390076;19;20415;-62
2023/04/18 10:57:09;;;;;;;9.43;5.18;;;;;;;13.63;45.69;103074.16;7390116;19;20019;-61
2023/04/18 10:59:39;;;;;;;10.60;4.93;;;;;;;13.72;46.05;103088.81;7390860;19;20043;-61
2023/04/18 11:02:29;;;;;;;9.20;5.03;;;;;;;13.79;45.80;103077.78;7390558;19;20019;-60
2023/04/18 11:05:05;;;;;;;10.75;5.90;;;;;;;13.68;45.99;103077.47;7390505;19;20047;-60
2023/04/18 11:07:38;;;;;;;9.32;5.40;;;;;;;13.59;46.10;103077.91;7389645;19;20014;-60
2023/04/18 11:10:07;;;;;;;10.43;5.80;;;;;;;13.59;46.27;103078.78;7389374;19;20048;-63
2023/04/18 11:12:35;;;;;;;12.32;5.57;;;;;;;13.69;46.33;103080.97;7388774;19;20030;-60
2023/04/18 11:15:22;;;;;;;10.02;5.72;;;;;;;13.67;46.47;103081.06;7389893;19;20025;-60
2023/04/18 11:18:03;;;;;;;10.30;5.22;;;;;;;13.70;46.42;103077.38;7388946;19;20047;-61
2023/04/18 11:20:38;;;;;;;8.27;5.07;;;;;;;13.77;46.67;103074.31;7392597;19;20034;-61
2023/04/18 11:23:15;;;;;;;9.32;4.78;;;;;;;13.80;46.20;103068.84;7388636;19;20015;-60
2023/04/18 11:25:45;;;;;;;9.38;5.45;;;;;;;13.76;46.35;103075.28;7388002;19;20031;-61